Terminal Aerodrome Forecast
Issued by NWS Raleigh/Durham, NC

Home | Current Version | Previous Version | Text Only | Print | Product List | Glossary On
Versions: 1 2 3 4 5 6 7 8 9 10 11 12 13 14 15 16 17
000
FTUS42 KRAH 241724
TAFRDU
TAF
KRDU 241724Z 2418/2518 09011G21KT P6SM BKN011 OVC020
      TEMPO 2418/2421 4SM -RA BR OVC008
     FM242100 08011G21KT P6SM BKN010 OVC022
      TEMPO 2421/2424 3SM -SHRA BR OVC003
     FM250000 06009KT P6SM VCSH OVC005
     FM250300 06005KT P6SM OVC003
     FM251400 VRB04KT P6SM OVC010=

USA.gov is the U.S. government's official web portal to all federal, state and local government web resources and services.